Time;durP1;ratioP1;P1;durP2;ratioP2;P2;SDS_P1;SDS_P2;PMS_P1;PMS_P2;Temp;Humidity;BMP_temperature;BMP_pressure;BME280_temperature;BME280_humidity;BME280_pressure;Samples;Min_cycle;Max_cycle;Signal;HPM_P1;HPM_P2
2021/12/21 00:02:11;;;;;;;26.58;22.08;;;;;;;-141.48;100.00;69781.59;5209760;28;20034;-63
2021/12/21 00:04:41;;;;;;;25.45;22.98;;;;;;;-141.48;100.00;69781.59;5208717;28;20125;-64
2021/12/21 00:07:11;;;;;;;23.00;21.00;;;;;;;-141.48;100.00;69781.59;5227233;28;20024;-62
2021/12/21 00:09:42;;;;;;;32.30;24.10;;;;;;;-141.48;100.00;69781.59;5225921;28;20024;-63
2021/12/21 00:12:15;;;;;;;23.67;21.00;;;;;;;-141.48;100.00;69781.59;5209423;28;20034;-63
2021/12/21 00:14:59;;;;;;;23.90;21.58;;;;;;;-141.48;100.00;69781.59;5209161;28;20021;-63
2021/12/21 00:25:23;;;;;;;22.65;20.65;;;;;;;-141.48;100.00;69781.59;5226463;28;20040;-63
2021/12/21 00:27:53;;;;;;;25.20;22.67;;;;;;;-141.48;100.00;69781.59;5209097;28;20029;-63
2021/12/21 00:30:24;;;;;;;25.23;21.88;;;;;;;-141.48;100.00;69781.59;5208570;28;20400;-63
2021/12/21 00:32:54;;;;;;;31.60;21.35;;;;;;;-141.48;100.00;69781.59;5208807;28;20025;-63
2021/12/21 00:35:25;;;;;;;25.65;22.40;;;;;;;-141.48;100.00;69781.59;5208645;28;20473;-63
2021/12/21 00:37:56;;;;;;;29.17;21.98;;;;;;;-141.48;100.00;69781.59;5208667;28;20021;-63
2021/12/21 00:40:27;;;;;;;26.52;23.50;;;;;;;-141.48;100.00;69781.59;5208847;28;20124;-63
2021/12/21 00:42:58;;;;;;;25.48;22.02;;;;;;;-141.48;100.00;69781.59;5208674;28;20120;-63
2021/12/21 00:45:28;;;;;;;21.02;19.13;;;;;;;-141.48;100.00;69781.59;5224866;28;20025;-63
2021/12/21 00:47:59;;;;;;;24.38;21.42;;;;;;;-141.48;100.00;69781.59;5208312;28;20025;-63
2021/12/21 00:50:29;;;;;;;22.38;20.30;;;;;;;-141.48;100.00;69781.59;5224806;28;20060;-63
2021/12/21 00:53:00;;;;;;;29.98;22.73;;;;;;;-141.48;100.00;69781.59;5208456;28;20495;-63
2021/12/21 00:55:31;;;;;;;23.42;21.15;;;;;;;-141.48;100.00;69781.59;5208515;28;20029;-63
2021/12/21 00:58:01;;;;;;;21.45;19.60;;;;;;;-141.48;100.00;69781.59;5208029;28;20033;-64
2021/12/21 01:00:32;;;;;;;24.50;22.35;;;;;;;-141.48;100.00;69781.59;5208437;28;20032;-63
2021/12/21 01:03:08;;;;;;;23.38;21.10;;;;;;;-141.48;100.00;69781.59;5208329;28;20033;-62
2021/12/21 01:05:51;;;;;;;21.45;19.30;;;;;;;-141.48;100.00;69781.59;5207838;28;20035;-63
2021/12/21 01:08:26;;;;;;;20.33;18.23;;;;;;;-141.48;100.00;69781.59;5225032;28;20028;-63
2021/12/21 01:18:42;;;;;;;22.55;19.40;;;;;;;-141.48;100.00;69781.59;5225922;28;20025;-63
2021/12/21 01:21:18;;;;;;;29.30;20.52;;;;;;;-141.48;100.00;69781.59;5208130;28;20036;-63
2021/12/21 01:26:32;;;;;;;21.70;19.98;;;;;;;-141.48;100.00;69781.59;5225810;28;20547;-63
2021/12/21 01:31:56;;;;;;;20.00;18.38;;;;;;;-141.48;100.00;69781.59;5225970;28;20488;-63
2021/12/21 01:37:18;;;;;;;23.13;17.88;;;;;;;-141.48;100.00;69781.59;5230409;28;20044;-63
2021/12/21 01:50:48;;;;;;;22.07;20.13;;;;;;;-141.48;100.00;69781.59;5229998;28;20037;-63
2021/12/21 01:53:19;;;;;;;21.25;19.58;;;;;;;-141.48;100.00;69781.59;5211695;28;20021;-64
2021/12/21 01:55:50;;;;;;;24.40;19.30;;;;;;;-141.48;100.00;69781.59;5228168;28;20104;-62
2021/12/21 01:58:21;;;;;;;24.73;20.88;;;;;;;-141.48;100.00;69781.59;5212327;28;20167;-63
2021/12/21 02:00:51;;;;;;;24.00;20.77;;;;;;;-141.48;100.00;69781.59;5211575;28;20404;-63
2021/12/21 02:03:22;;;;;;;20.88;18.73;;;;;;;-141.48;100.00;69781.59;5227658;28;20029;-63
2021/12/21 02:05:52;;;;;;;21.23;18.35;;;;;;;-141.48;100.00;69781.59;5211417;28;20028;-63
2021/12/21 02:08:23;;;;;;;20.70;18.92;;;;;;;-141.48;100.00;69781.59;5211638;28;20016;-63
2021/12/21 02:10:53;;;;;;;21.55;18.52;;;;;;;-141.48;100.00;69781.59;5228008;28;20033;-63
2021/12/21 02:13:24;;;;;;;19.50;17.88;;;;;;;-141.48;100.00;69781.59;5211522;28;20397;-62
2021/12/21 02:15:55;;;;;;;20.48;18.60;;;;;;;-141.48;100.00;69781.59;5211288;28;20025;-62
2021/12/21 02:21:06;;;;;;;19.63;17.98;;;;;;;-141.48;100.00;69781.59;5229155;28;20047;-63
2021/12/21 02:23:41;;;;;;;25.27;18.52;;;;;;;-141.48;100.00;69781.59;5210880;28;20108;-63
2021/12/21 02:26:23;;;;;;;20.67;18.77;;;;;;;-141.48;100.00;69781.59;5210946;28;20040;-63
2021/12/21 02:29:12;;;;;;;21.92;17.88;;;;;;;-141.48;100.00;69781.59;5211269;28;20025;-63
2021/12/21 02:31:49;;;;;;;18.95;17.15;;;;;;;-141.48;100.00;69781.59;5210924;28;20029;-63
2021/12/21 02:34:22;;;;;;;19.48;17.45;;;;;;;-141.48;100.00;69781.59;5228278;28;20092;-63
2021/12/21 02:36:56;;;;;;;18.05;16.75;;;;;;;-141.48;100.00;69781.59;5210742;28;20056;-62
2021/12/21 02:39:27;;;;;;;17.90;16.13;;;;;;;-141.48;100.00;69781.59;5210533;28;20080;-63
2021/12/21 02:41:57;;;;;;;21.63;17.83;;;;;;;-141.48;100.00;69781.59;5210609;28;20035;-62
2021/12/21 02:44:28;;;;;;;21.98;19.67;;;;;;;-141.48;100.00;69781.59;5226482;28;20025;-62
2021/12/21 02:46:59;;;;;;;20.40;18.55;;;;;;;-141.48;100.00;69781.59;5210567;28;20094;-62
2021/12/21 02:49:29;;;;;;;19.13;17.38;;;;;;;-141.48;100.00;69781.59;5210664;28;20036;-64
2021/12/21 02:52:03;;;;;;;24.85;18.52;;;;;;;-141.48;100.00;69781.59;5210636;28;20021;-63
2021/12/21 02:54:33;;;;;;;26.98;19.88;;;;;;;-141.48;100.00;69781.59;5210558;28;20032;-64
2021/12/21 02:57:04;;;;;;;21.42;17.23;;;;;;;-141.48;100.00;69781.59;5210538;28;20025;-62
2021/12/21 02:59:35;;;;;;;23.85;17.05;;;;;;;-141.48;100.00;69781.59;5210018;28;20075;-62
2021/12/21 03:02:05;;;;;;;24.15;16.67;;;;;;;-141.48;100.00;69781.59;5210814;28;20025;-62
2021/12/21 03:04:36;;;;;;;18.38;16.55;;;;;;;-141.48;100.00;69781.59;5210101;28;20025;-63
2021/12/21 03:07:37;;;;;;;17.13;15.82;;;;;;;-141.48;100.00;69781.59;5210150;28;20040;-61
2021/12/21 03:10:02;;;;;;;17.70;16.08;;;;;;;-141.48;100.00;69781.59;5227389;28;20036;-62
2021/12/21 03:15:23;;;;;;;22.38;18.30;;;;;;;-141.48;100.00;69781.59;5227635;28;20729;-62
2021/12/21 03:17:55;;;;;;;24.25;16.08;;;;;;;-141.48;100.00;69781.59;5227940;28;20028;-61
2021/12/21 03:20:26;;;;;;;17.33;15.93;;;;;;;-141.48;100.00;69781.59;5210099;28;20035;-62
2021/12/21 03:25:32;;;;;;;18.00;16.52;;;;;;;-141.48;100.00;69781.59;5165490;28;20049;-85
2021/12/21 03:28:03;;;;;;;19.42;16.38;;;;;;;-141.48;100.00;69781.59;5175823;28;20035;-85
2021/12/21 03:30:33;;;;;;;18.60;16.05;;;;;;;-141.48;100.00;69781.59;5176437;28;20030;-85
2021/12/21 03:33:04;;;;;;;18.38;16.63;;;;;;;-141.48;100.00;69781.59;5176719;28;20026;-85
2021/12/21 03:35:34;;;;;;;17.77;15.90;;;;;;;-141.48;100.00;69781.59;5177712;28;20031;-85
2021/12/21 03:38:05;;;;;;;16.83;15.63;;;;;;;-141.48;100.00;69781.59;5159826;28;20058;-85
2021/12/21 03:40:36;;;;;;;20.00;17.85;;;;;;;-141.48;100.00;69781.59;5188559;28;20010;-83
2021/12/21 03:43:06;;;;;;;17.75;15.98;;;;;;;-141.48;100.00;69781.59;5174021;28;20021;-86
2021/12/21 03:45:48;;;;;;;16.13;14.50;;;;;;;-141.48;100.00;69781.59;5174966;28;20026;-86
2021/12/21 03:48:18;;;;;;;18.15;16.42;;;;;;;-141.48;100.00;69781.59;5156655;28;20042;-85
2021/12/21 03:50:48;;;;;;;19.85;17.90;;;;;;;-141.48;100.00;69781.59;5174989;28;20363;-85
2021/12/21 03:53:19;;;;;;;20.83;18.63;;;;;;;-141.48;100.00;69781.59;5174688;28;20018;-85
2021/12/21 03:55:59;;;;;;;17.30;13.95;;;;;;;-141.48;100.00;69781.59;5173579;28;20045;-85
2021/12/21 03:58:30;;;;;;;18.00;15.88;;;;;;;-141.48;100.00;69781.59;5174584;28;20026;-85
2021/12/21 04:01:00;;;;;;;15.90;14.45;;;;;;;-141.48;100.00;69781.59;5175304;28;20014;-85
2021/12/21 04:03:31;;;;;;;29.65;16.88;;;;;;;-141.48;100.00;69781.59;5176663;28;20093;-86
2021/12/21 04:06:02;;;;;;;17.95;16.55;;;;;;;-141.48;100.00;69781.59;5176707;28;20026;-85
2021/12/21 04:08:36;;;;;;;23.77;17.13;;;;;;;-141.48;100.00;69781.59;5177417;28;20113;-85
2021/12/21 04:11:06;;;;;;;15.20;14.02;;;;;;;-141.48;100.00;69781.59;5177200;28;20109;-85
2021/12/21 04:13:37;;;;;;;16.75;15.50;;;;;;;-141.48;100.00;69781.59;5176824;28;20057;-85
2021/12/21 04:16:08;;;;;;;16.05;14.68;;;;;;;-141.48;100.00;69781.59;5158973;28;20026;-85
2021/12/21 04:18:39;;;;;;;17.92;16.23;;;;;;;-141.48;100.00;69781.59;5174956;28;20018;-85
2021/12/21 04:21:12;;;;;;;15.77;14.60;;;;;;;-141.48;100.00;69781.59;5174528;28;20026;-85
2021/12/21 04:23:43;;;;;;;32.47;16.45;;;;;;;-141.48;100.00;69781.59;5173903;28;20034;-86
2021/12/21 04:26:15;;;;;;;16.88;15.35;;;;;;;-141.48;100.00;69781.59;5174136;28;20116;-86
2021/12/21 04:28:46;;;;;;;16.75;15.10;;;;;;;-141.48;100.00;69781.59;5174207;28;20030;-86
2021/12/21 04:31:16;;;;;;;18.15;16.52;;;;;;;-141.48;100.00;69781.59;5174529;28;20057;-86
2021/12/21 04:33:47;;;;;;;17.95;15.25;;;;;;;-141.48;100.00;69781.59;5174206;28;20030;-85
2021/12/21 04:36:17;;;;;;;17.75;14.50;;;;;;;-141.48;100.00;69781.59;5174326;28;20018;-86
2021/12/21 04:38:50;;;;;;;17.73;15.68;;;;;;;-141.48;100.00;69781.59;5156884;28;20026;-85
2021/12/21 04:41:27;;;;;;;17.02;14.30;;;;;;;-141.48;100.00;69781.59;5174115;28;20026;-85
2021/12/21 04:43:59;;;;;;;18.75;17.17;;;;;;;-141.48;100.00;69781.59;5174290;28;20165;-86
2021/12/21 04:46:29;;;;;;;18.17;16.58;;;;;;;-141.48;100.00;69781.59;5174231;28;20480;-86
2021/12/21 04:49:00;;;;;;;21.67;15.05;;;;;;;-141.48;100.00;69781.59;5174233;28;20037;-85
2021/12/21 04:51:30;;;;;;;18.55;14.18;;;;;;;-141.48;100.00;69781.59;5157460;28;20061;-86
2021/12/21 04:54:01;;;;;;;17.85;16.33;;;;;;;-141.48;100.00;69781.59;5174853;28;20543;-86
2021/12/21 04:56:31;;;;;;;15.80;14.35;;;;;;;-141.48;100.00;69781.59;5175209;28;20196;-86
2021/12/21 04:59:02;;;;;;;16.35;14.93;;;;;;;-141.48;100.00;69781.59;5175405;28;20026;-86
2021/12/21 05:01:32;;;;;;;15.07;13.80;;;;;;;-141.48;100.00;69781.59;5175206;28;20118;-85
2021/12/21 05:04:03;;;;;;;19.42;17.67;;;;;;;-141.48;100.00;69781.59;5174667;28;20022;-86
2021/12/21 05:06:33;;;;;;;16.48;13.23;;;;;;;-141.48;100.00;69781.59;5156987;28;20026;-86
2021/12/21 05:09:12;;;;;;;15.93;14.43;;;;;;;-141.48;100.00;69781.59;5174758;28;20034;-85
2021/12/21 05:11:44;;;;;;;14.57;13.38;;;;;;;-141.48;100.00;69781.59;5174749;28;20396;-86
2021/12/21 05:14:15;;;;;;;15.70;13.95;;;;;;;-141.48;100.00;69781.59;5174643;28;20028;-85
2021/12/21 05:16:45;;;;;;;15.27;13.35;;;;;;;-141.48;100.00;69781.59;5175338;28;20090;-85
2021/12/21 05:19:15;;;;;;;17.88;16.35;;;;;;;-141.48;100.00;69781.59;5176611;28;20078;-86
2021/12/21 05:21:46;;;;;;;15.35;13.93;;;;;;;-141.48;100.00;69781.59;5159927;28;20030;-85
2021/12/21 05:24:17;;;;;;;14.68;13.52;;;;;;;-141.48;100.00;69781.59;5177515;28;20030;-85
2021/12/21 05:26:47;;;;;;;19.92;16.83;;;;;;;-141.48;100.00;69781.59;5176746;28;20026;-85
2021/12/21 05:29:19;;;;;;;18.88;15.77;;;;;;;-141.48;100.00;69781.59;5176983;28;20036;-86
2021/12/21 05:31:50;;;;;;;15.68;14.40;;;;;;;-141.48;100.00;69781.59;5176555;28;20025;-86
2021/12/21 05:34:20;;;;;;;14.05;12.43;;;;;;;-141.48;100.00;69781.59;5159997;28;20038;-87
2021/12/21 05:36:51;;;;;;;16.40;14.65;;;;;;;-141.48;100.00;69781.59;5177912;28;20392;-86
2021/12/21 05:39:25;;;;;;;16.77;15.38;;;;;;;-141.48;100.00;69781.59;5177572;28;20118;-86
2021/12/21 05:41:56;;;;;;;21.23;15.73;;;;;;;-141.48;100.00;69781.59;5154494;28;20031;-87
2021/12/21 05:44:26;;;;;;;16.08;14.48;;;;;;;-141.48;100.00;69781.59;5155257;28;20030;-85
2021/12/21 05:46:57;;;;;;;15.60;14.30;;;;;;;-141.48;100.00;69781.59;5170213;28;20022;-85
2021/12/21 05:49:27;;;;;;;15.73;13.85;;;;;;;-141.48;100.00;69781.59;5152550;28;20030;-85
2021/12/21 05:51:58;;;;;;;16.40;14.75;;;;;;;-141.48;100.00;69781.59;5152725;28;20026;-85
2021/12/21 05:54:28;;;;;;;16.83;15.25;;;;;;;-141.48;100.00;69781.59;5150153;28;20448;-84
2021/12/21 05:56:59;;;;;;;16.25;14.68;;;;;;;-141.48;100.00;69781.59;5165654;28;20080;-84
2021/12/21 05:59:29;;;;;;;16.65;15.05;;;;;;;-141.48;100.00;69781.59;5165181;28;20033;-83
2021/12/21 06:02:00;;;;;;;13.52;12.50;;;;;;;-141.48;100.00;69781.59;5165105;28;20436;-84
2021/12/21 06:04:30;;;;;;;17.30;15.82;;;;;;;-141.48;100.00;69781.59;5147640;28;20488;-83
2021/12/21 06:07:01;;;;;;;17.88;16.00;;;;;;;-141.48;100.00;69781.59;5165935;28;20030;-84
2021/12/21 06:09:32;;;;;;;15.43;14.20;;;;;;;-141.48;100.00;69781.59;5148148;28;20026;-84
2021/12/21 06:12:20;;;;;;;17.15;14.75;;;;;;;-141.48;100.00;69781.59;5165625;28;20057;-84
2021/12/21 06:26:07;;;;;;;15.98;14.27;;;;;;;-141.48;100.00;69781.59;5169030;28;20083;-84
2021/12/21 06:28:38;;;;;;;15.63;14.15;;;;;;;-141.48;100.00;69781.59;5169099;28;20477;-84
2021/12/21 06:31:08;;;;;;;15.98;14.43;;;;;;;-141.48;100.00;69781.59;5170107;28;20034;-84
2021/12/21 06:33:39;;;;;;;19.33;17.35;;;;;;;-141.48;100.00;69781.59;5170223;28;20057;-84
2021/12/21 06:36:10;;;;;;;20.52;18.08;;;;;;;-141.48;100.00;69781.59;5152939;28;20086;-84
2021/12/21 06:38:41;;;;;;;22.83;15.93;;;;;;;-141.48;100.00;69781.59;5153549;28;20456;-84
2021/12/21 06:41:12;;;;;;;15.90;14.57;;;;;;;-141.48;100.00;69781.59;5171859;28;20050;-84
2021/12/21 06:43:43;;;;;;;20.88;19.17;;;;;;;-141.48;100.00;69781.59;5154906;28;20045;-85
2021/12/21 06:51:58;;;;;;;17.80;16.25;;;;;;;-141.48;100.00;69781.59;5171149;28;20085;-85
2021/12/21 06:54:29;;;;;;;17.20;15.63;;;;;;;-141.48;100.00;69781.59;5172798;28;20033;-85
2021/12/21 06:56:59;;;;;;;15.13;13.85;;;;;;;-141.48;100.00;69781.59;5155471;28;20108;-85
2021/12/21 06:59:30;;;;;;;20.63;16.85;;;;;;;-141.48;100.00;69781.59;5173388;28;20134;-85
2021/12/21 07:02:00;;;;;;;16.67;15.45;;;;;;;-141.48;100.00;69781.59;5155734;28;20037;-84
2021/12/21 07:04:31;;;;;;;21.58;16.67;;;;;;;-141.48;100.00;69781.59;5156205;28;20030;-86
2021/12/21 07:07:02;;;;;;;17.23;15.90;;;;;;;-141.48;100.00;69781.59;5175154;28;20105;-86
2021/12/21 07:09:43;;;;;;;19.25;17.45;;;;;;;-141.48;100.00;69781.59;5152958;28;20046;-86
2021/12/21 07:12:29;;;;;;;21.20;19.17;;;;;;;-141.48;100.00;69781.59;5169095;28;20050;-85
2021/12/21 07:20:38;;;;;;;17.45;15.90;;;;;;;-141.48;100.00;69781.59;5170302;28;20117;-85
2021/12/21 07:23:09;;;;;;;20.92;18.73;;;;;;;-141.48;100.00;69781.59;5152836;28;20049;-85
2021/12/21 07:25:39;;;;;;;18.55;16.90;;;;;;;-141.48;100.00;69781.59;5153894;28;20085;-85
2021/12/21 07:28:09;;;;;;;28.00;19.35;;;;;;;-141.48;100.00;69781.59;5172458;28;20034;-85
2021/12/21 07:30:40;;;;;;;20.73;18.70;;;;;;;-141.48;100.00;69781.59;5172033;28;20077;-85
2021/12/21 07:33:10;;;;;;;19.55;17.30;;;;;;;-141.48;100.00;69781.59;5154714;28;20113;-85
2021/12/21 07:35:41;;;;;;;19.35;17.75;;;;;;;-141.48;100.00;69781.59;5172576;28;20062;-85
2021/12/21 07:38:12;;;;;;;20.35;18.67;;;;;;;-141.48;100.00;69781.59;5171909;28;20086;-85
2021/12/21 07:40:42;;;;;;;25.40;19.13;;;;;;;-141.48;100.00;69781.59;5156047;28;20085;-85
2021/12/21 07:43:12;;;;;;;18.73;17.08;;;;;;;-141.48;100.00;69781.59;5155672;28;20558;-85
2021/12/21 07:45:43;;;;;;;21.67;15.35;;;;;;;-141.48;100.00;69781.59;5173989;28;20021;-84
2021/12/21 07:48:13;;;;;;;16.13;14.73;;;;;;;-141.48;100.00;69781.59;5173961;28;20030;-84
2021/12/21 07:50:46;;;;;;;19.75;17.77;;;;;;;-141.48;100.00;69781.59;5156009;28;20027;-85
2021/12/21 07:53:18;;;;;;;22.90;18.27;;;;;;;-141.48;100.00;69781.59;5156083;28;20026;-86
2021/12/21 07:55:49;;;;;;;19.48;17.65;;;;;;;-141.48;100.00;69781.59;5174303;28;20026;-85
2021/12/21 07:58:19;;;;;;;21.48;19.45;;;;;;;-141.48;100.00;69781.59;5173168;28;20098;-85
2021/12/21 08:00:50;;;;;;;22.55;16.85;;;;;;;-141.48;100.00;69781.59;5174125;28;20101;-85
2021/12/21 08:03:20;;;;;;;21.88;19.42;;;;;;;-141.48;100.00;69781.59;5157337;28;20049;-85
2021/12/21 08:05:54;;;;;;;20.73;18.80;;;;;;;-141.48;100.00;69781.59;5175157;28;20078;-85
2021/12/21 08:08:27;;;;;;;19.83;18.05;;;;;;;-141.48;100.00;69781.59;5172583;28;20396;-87
2021/12/21 08:11:12;;;;;;;26.38;21.10;;;;;;;-141.48;100.00;69781.59;5156374;28;20034;-83
2021/12/21 08:13:47;;;;;;;23.10;18.60;;;;;;;-141.48;100.00;69781.59;5174995;28;20060;-87
2021/12/21 08:16:17;;;;;;;17.23;16.02;;;;;;;-141.48;100.00;69781.59;5174339;28;20018;-86
2021/12/21 08:18:47;;;;;;;27.85;17.85;;;;;;;-141.48;100.00;69781.59;5174325;28;20026;-85
2021/12/21 08:21:19;;;;;;;19.52;17.38;;;;;;;-141.48;100.00;69781.59;5174532;28;20034;-85
2021/12/21 08:23:49;;;;;;;19.75;18.00;;;;;;;-141.48;100.00;69781.59;5174797;28;20057;-85
2021/12/21 08:26:20;;;;;;;19.98;18.38;;;;;;;-141.48;100.00;69781.59;5157214;28;20027;-85
2021/12/21 08:28:50;;;;;;;21.35;19.75;;;;;;;-141.48;100.00;69781.59;5174979;28;20026;-85
2021/12/21 08:31:21;;;;;;;21.20;18.92;;;;;;;-141.48;100.00;69781.59;5174966;28;20030;-84
2021/12/21 08:33:51;;;;;;;19.73;18.13;;;;;;;-141.48;100.00;69781.59;5157757;28;20033;-85
2021/12/21 08:36:21;;;;;;;21.05;19.23;;;;;;;-141.48;100.00;69781.59;5174500;28;20033;-84
2021/12/21 08:38:52;;;;;;;22.75;18.58;;;;;;;-141.48;100.00;69781.59;5175092;28;20085;-85
2021/12/21 08:41:23;;;;;;;20.48;18.75;;;;;;;-141.48;100.00;69781.59;5175650;28;20018;-85
2021/12/21 08:43:54;;;;;;;21.85;20.02;;;;;;;-141.48;100.00;69781.59;5175853;28;20074;-84
2021/12/21 08:46:24;;;;;;;20.05;18.33;;;;;;;-141.48;100.00;69781.59;5182583;28;20022;-85
2021/12/21 08:48:54;;;;;;;22.42;17.58;;;;;;;-141.48;100.00;69781.59;5181049;28;20061;-85
2021/12/21 08:51:25;;;;;;;21.38;16.88;;;;;;;-141.48;100.00;69781.59;5165375;28;20029;-85
2021/12/21 08:53:55;;;;;;;19.02;16.67;;;;;;;-141.48;100.00;69781.59;5178036;28;20037;-84
2021/12/21 08:56:25;;;;;;;16.58;15.15;;;;;;;-141.48;100.00;69781.59;5172660;28;20626;-85
2021/12/21 08:58:56;;;;;;;18.75;16.77;;;;;;;-141.48;100.00;69781.59;5171528;28;20504;-85
2021/12/21 09:01:26;;;;;;;19.52;17.52;;;;;;;-141.48;100.00;69781.59;5151411;28;20481;-85
2021/12/21 09:03:57;;;;;;;20.85;18.63;;;;;;;-141.48;100.00;69781.59;5153820;28;20034;-85
2021/12/21 09:06:27;;;;;;;23.67;21.35;;;;;;;-141.48;100.00;69781.59;5153356;28;20479;-85
2021/12/21 09:08:58;;;;;;;21.00;18.85;;;;;;;-141.48;100.00;69781.59;5153734;28;20496;-85
2021/12/21 09:11:28;;;;;;;24.65;22.08;;;;;;;-141.48;100.00;69781.59;5153677;28;20101;-85
2021/12/21 09:13:58;;;;;;;19.83;18.02;;;;;;;-141.48;100.00;69781.59;5153000;28;20022;-84
2021/12/21 09:16:29;;;;;;;21.33;19.45;;;;;;;-141.48;100.00;69781.59;5152544;28;20022;-85
2021/12/21 09:19:01;;;;;;;20.33;18.48;;;;;;;-141.48;100.00;69781.59;5152906;28;20109;-85
2021/12/21 09:21:32;;;;;;;27.13;20.23;;;;;;;-141.48;100.00;69781.59;5152523;28;20152;-85
2021/12/21 09:24:02;;;;;;;24.63;20.92;;;;;;;-141.48;100.00;69781.59;5152973;28;20042;-85
2021/12/21 09:26:33;;;;;;;26.65;18.52;;;;;;;-141.48;100.00;69781.59;5150996;28;20014;-85
2021/12/21 09:29:03;;;;;;;20.50;17.92;;;;;;;-141.48;100.00;69781.59;5170164;28;20463;-85
2021/12/21 09:31:34;;;;;;;19.48;17.85;;;;;;;-141.48;100.00;69781.59;5177167;28;20014;-84
2021/12/21 09:34:04;;;;;;;16.63;15.18;;;;;;;-141.48;100.00;69781.59;5183860;28;20110;-85
2021/12/21 09:36:35;;;;;;;15.63;14.43;;;;;;;-141.48;100.00;69781.59;5173508;28;20443;-85
2021/12/21 09:39:06;;;;;;;18.35;16.52;;;;;;;-141.48;100.00;69781.59;5152008;28;20030;-84
2021/12/21 09:41:36;;;;;;;14.15;13.18;;;;;;;-141.48;100.00;69781.59;5169718;28;20080;-85
2021/12/21 09:44:07;;;;;;;21.88;15.32;;;;;;;-141.48;100.00;69781.59;5169332;28;20026;-84
2021/12/21 09:46:37;;;;;;;20.55;18.33;;;;;;;-141.48;100.00;69781.59;5169109;28;20033;-85
2021/12/21 09:49:08;;;;;;;21.88;20.02;;;;;;;-141.48;100.00;69781.59;5169309;28;20033;-85
2021/12/21 09:51:38;;;;;;;22.15;19.83;;;;;;;-141.48;100.00;69781.59;5152394;28;20034;-85
2021/12/21 09:54:09;;;;;;;18.45;16.80;;;;;;;-141.48;100.00;69781.59;5170372;28;20026;-85
2021/12/21 09:56:39;;;;;;;20.75;19.15;;;;;;;-141.48;100.00;69781.59;5173795;28;20018;-85
2021/12/21 09:59:10;;;;;;;25.40;22.80;;;;;;;-141.48;100.00;69781.59;5155861;28;20041;-84
2021/12/21 10:01:41;;;;;;;19.90;18.17;;;;;;;-141.48;100.00;69781.59;5157356;28;20092;-85
2021/12/21 10:04:11;;;;;;;23.67;18.05;;;;;;;-141.48;100.00;69781.59;5174769;28;20388;-85
2021/12/21 10:06:47;;;;;;;22.08;18.30;;;;;;;-141.48;100.00;69781.59;5174603;28;20019;-85
2021/12/21 10:09:20;;;;;;;20.48;18.63;;;;;;;-141.48;100.00;69781.59;5175222;28;20109;-85
2021/12/21 10:11:53;;;;;;;16.90;15.43;;;;;;;-141.48;100.00;69781.59;5174151;28;20097;-85
2021/12/21 10:14:25;;;;;;;16.88;15.48;;;;;;;-141.48;100.00;69781.59;5172558;28;20026;-84
2021/12/21 10:17:07;;;;;;;17.80;16.00;;;;;;;-141.48;100.00;69781.59;5172270;28;20425;-85
2021/12/21 10:19:42;;;;;;;14.63;13.63;;;;;;;-141.48;100.00;69781.59;5172718;28;20026;-85
2021/12/21 10:22:15;;;;;;;15.48;13.55;;;;;;;-141.48;100.00;69781.59;5174630;28;20038;-84
2021/12/21 10:24:51;;;;;;;15.73;14.10;;;;;;;-141.48;100.00;69781.59;5173278;28;20037;-85
2021/12/21 10:27:24;;;;;;;15.18;13.73;;;;;;;-141.48;100.00;69781.59;5156913;28;20022;-86
2021/12/21 10:29:58;;;;;;;17.65;15.27;;;;;;;-141.48;100.00;69781.59;5156783;28;20030;-86
2021/12/21 10:32:31;;;;;;;15.25;13.75;;;;;;;-141.48;100.00;69781.59;5174335;28;20033;-85
2021/12/21 10:35:10;;;;;;;15.07;13.80;;;;;;;-141.48;100.00;69781.59;5156794;28;20129;-86
2021/12/21 10:37:42;;;;;;;15.63;14.30;;;;;;;-141.48;100.00;69781.59;5174427;28;20053;-86
2021/12/21 10:40:26;;;;;;;17.15;15.85;;;;;;;-141.48;100.00;69781.59;5173760;28;20036;-85
2021/12/21 10:43:00;;;;;;;15.18;13.82;;;;;;;-141.48;100.00;69781.59;5172439;28;20026;-84
2021/12/21 10:45:37;;;;;;;16.73;15.30;;;;;;;-141.48;100.00;69781.59;5172970;28;20037;-85
2021/12/21 10:48:15;;;;;;;14.27;12.93;;;;;;;-141.48;100.00;69781.59;5173774;28;20038;-85
2021/12/21 10:50:47;;;;;;;14.77;13.27;;;;;;;-141.48;100.00;69781.59;5173535;28;20053;-84
2021/12/21 10:53:23;;;;;;;16.25;13.90;;;;;;;-141.48;100.00;69781.59;5173913;28;20547;-85
2021/12/21 10:56:06;;;;;;;16.88;15.13;;;;;;;-141.48;100.00;69781.59;5156788;28;20027;-85
2021/12/21 10:58:42;;;;;;;14.68;13.35;;;;;;;-141.48;100.00;69781.59;5156976;28;20378;-85
2021/12/21 11:01:19;;;;;;;13.40;12.15;;;;;;;-141.48;100.00;69781.59;5152148;28;20037;-84
2021/12/21 11:03:51;;;;;;;14.85;13.38;;;;;;;-141.48;100.00;69781.59;5154413;28;20022;-85
2021/12/21 11:06:24;;;;;;;12.55;10.82;;;;;;;-141.48;100.00;69781.59;5170565;28;20019;-85
2021/12/21 11:08:56;;;;;;;15.20;13.57;;;;;;;-141.48;100.00;69781.59;5168802;28;20519;-85
2021/12/21 11:11:43;;;;;;;15.32;12.35;;;;;;;-141.48;100.00;69781.59;5173889;28;20030;-84
2021/12/21 11:14:18;;;;;;;14.57;12.68;;;;;;;-141.48;100.00;69781.59;5170025;28;20133;-85
2021/12/21 11:16:51;;;;;;;13.10;11.10;;;;;;;-141.48;100.00;69781.59;5151599;28;20053;-85
2021/12/21 11:19:23;;;;;;;11.50;10.70;;;;;;;-141.48;100.00;69781.59;5169083;28;20069;-85
2021/12/21 11:21:55;;;;;;;12.05;11.35;;;;;;;-141.48;100.00;69781.59;5154250;28;20105;-85
2021/12/21 11:24:29;;;;;;;13.75;12.35;;;;;;;-141.48;100.00;69781.59;5155331;28;20033;-85
2021/12/21 11:27:02;;;;;;;13.30;12.15;;;;;;;-141.48;100.00;69781.59;5172284;28;20034;-85
2021/12/21 11:29:35;;;;;;;14.13;12.98;;;;;;;-141.48;100.00;69781.59;5168983;28;20620;-85
2021/12/21 11:32:07;;;;;;;12.15;11.25;;;;;;;-141.48;100.00;69781.59;5167777;28;20127;-85
2021/12/21 11:34:57;;;;;;;11.80;10.23;;;;;;;-141.48;100.00;69781.59;5153767;28;20037;-84
2021/12/21 11:37:29;;;;;;;11.43;10.60;;;;;;;-141.48;100.00;69781.59;5171141;28;20076;-84
2021/12/21 11:40:00;;;;;;;20.52;12.60;;;;;;;-141.48;100.00;69781.59;5171084;28;20566;-85
2021/12/21 11:42:40;;;;;;;12.98;11.65;;;;;;;-141.48;100.00;69781.59;5154090;28;20030;-85
2021/12/21 11:45:22;;;;;;;13.52;12.43;;;;;;;-141.48;100.00;69781.59;5154032;28;20444;-86
2021/12/21 11:48:00;;;;;;;15.25;10.48;;;;;;;-141.48;100.00;69781.59;5170250;28;20038;-85
2021/12/21 11:50:30;;;;;;;11.63;10.82;;;;;;;-141.48;100.00;69781.59;5170342;28;20030;-85
2021/12/21 11:53:07;;;;;;;8.32;7.75;;;;;;;-141.48;100.00;69781.59;5152503;28;20502;-86
2021/12/21 11:55:40;;;;;;;10.57;9.55;;;;;;;-141.48;100.00;69781.59;5169553;28;20037;-86
2021/12/21 11:58:16;;;;;;;9.90;9.18;;;;;;;-141.48;100.00;69781.59;5168036;28;20033;-86
2021/12/21 12:01:02;;;;;;;9.85;9.10;;;;;;;-141.48;100.00;69781.59;5169619;28;20057;-86
2021/12/21 12:03:37;;;;;;;8.95;7.47;;;;;;;-141.48;100.00;69781.59;5150278;28;20033;-85
2021/12/21 12:06:13;;;;;;;9.70;8.95;;;;;;;-141.48;100.00;69781.59;5167116;28;20389;-87
2021/12/21 12:08:50;;;;;;;10.65;9.65;;;;;;;-141.48;100.00;69781.59;5148540;28;20463;-87
2021/12/21 12:11:25;;;;;;;8.98;8.27;;;;;;;-141.48;100.00;69781.59;5148879;28;20026;-86
2021/12/21 12:14:09;;;;;;;9.77;9.07;;;;;;;-141.48;100.00;69781.59;5169226;28;20026;-83
2021/12/21 12:16:48;;;;;;;9.88;8.90;;;;;;;-141.48;100.00;69781.59;5150794;28;20032;-83
2021/12/21 12:19:34;;;;;;;8.52;7.93;;;;;;;-141.48;100.00;69781.59;5155302;28;20103;-84
2021/12/21 12:22:09;;;;;;;9.23;8.30;;;;;;;-141.48;100.00;69781.59;5173544;28;20029;-84
2021/12/21 12:24:45;;;;;;;9.50;8.55;;;;;;;-141.48;100.00;69781.59;5173198;28;20037;-84